Waccabuc, New York
Current Conditions -  °F | °C
As of 8:17 PM on Monday 22 Dec 2014 (Local Time) from KDXR Reporting Station
Haze Haze  
Wind Chill: 33°   Ceiling: 900
Heat Index: 38°   Visibility: 2.5mi
Dew Point: 35°   Wind: 6mph
Humidity: 89%   Direction: 50°NE
Pressure: 30.24"   Gusts: NA
Location:  41.29°N, 73.59°W
Report Text: KDXR 230117Z 05005KT 2 1/2SM BR OVC009 03/02 A3024 RMK AO2 T00330017
Loading
Personal Weather Stations






























Interactive Weather Map New forecast layout! Learn more

10-Day Weather Forecast

Advertisements
Track Severe Weather on mobile